createdAt,value
2018-09-04T00:00:37.953Z,0.00
2018-09-04T00:01:37.921Z,0.00
2018-09-04T00:02:37.883Z,0.00
2018-09-04T00:03:37.816Z,0.00
2018-09-04T00:04:37.777Z,0.00
2018-09-04T00:05:37.727Z,0.00
2018-09-04T00:06:37.677Z,0.00
2018-09-04T00:07:37.636Z,0.00
2018-09-04T00:08:37.584Z,0.00
2018-09-04T00:09:37.537Z,0.00
2018-09-04T00:10:37.486Z,0.00
2018-09-04T00:11:37.440Z,0.00
2018-09-04T00:12:37.393Z,0.00
2018-09-04T00:13:37.345Z,0.00
2018-09-04T00:14:37.301Z,0.00
2018-09-04T00:15:37.254Z,0.00
2018-09-04T00:16:37.212Z,0.00
2018-09-04T00:17:37.149Z,0.00
2018-09-04T00:18:37.100Z,0.00
2018-09-04T00:19:37.041Z,0.00
2018-09-04T00:20:37.015Z,0.00
2018-09-04T00:21:36.969Z,0.00
2018-09-04T00:22:36.925Z,0.00
2018-09-04T00:23:36.870Z,0.00
2018-09-04T00:24:36.869Z,0.00
2018-09-04T00:25:36.774Z,0.00
2018-09-04T00:26:36.727Z,0.00
2018-09-04T00:27:36.676Z,0.00
2018-09-04T00:28:36.632Z,0.00
2018-09-04T00:29:36.584Z,0.00
2018-09-04T00:30:36.534Z,0.00
2018-09-04T00:31:36.483Z,0.00
2018-09-04T00:32:36.434Z,0.00
2018-09-04T00:33:36.388Z,0.00
2018-09-04T00:34:36.342Z,0.00
2018-09-04T00:35:36.298Z,0.00
2018-09-04T00:36:36.237Z,0.00
2018-09-04T00:37:36.193Z,0.00
2018-09-04T00:38:36.147Z,0.00
2018-09-04T00:39:36.104Z,0.00
2018-09-04T00:40:36.064Z,0.00
2018-09-04T00:41:36.011Z,0.00
2018-09-04T00:42:35.964Z,0.00
2018-09-04T00:43:35.907Z,0.00
2018-09-04T00:44:35.861Z,0.00
2018-09-04T00:45:35.812Z,0.00
2018-09-04T00:46:35.747Z,0.00
2018-09-04T00:47:35.709Z,0.00
2018-09-04T00:48:35.661Z,0.00
2018-09-04T00:49:35.603Z,0.00
2018-09-04T00:50:35.571Z,0.00
2018-09-04T00:51:35.520Z,0.00
2018-09-04T00:52:35.486Z,0.00
2018-09-04T00:53:35.422Z,0.00
2018-09-04T00:54:35.368Z,0.00
2018-09-04T00:55:35.346Z,0.00
2018-09-04T00:56:35.276Z,0.00
2018-09-04T00:57:35.239Z,0.00
2018-09-04T00:58:35.188Z,0.00
2018-09-04T00:59:35.136Z,0.00
2018-09-04T01:00:35.090Z,0.00
2018-09-04T01:01:35.054Z,0.00
2018-09-04T01:02:34.998Z,0.00
2018-09-04T01:03:34.947Z,0.00
2018-09-04T01:04:34.900Z,0.00
2018-09-04T01:05:34.858Z,0.00
2018-09-04T01:06:34.784Z,0.00
2018-09-04T01:07:34.756Z,0.00
2018-09-04T01:08:34.699Z,0.00
2018-09-04T01:09:34.659Z,0.00
2018-09-04T01:10:34.606Z,0.00
2018-09-04T01:11:34.549Z,0.00
2018-09-04T01:12:34.501Z,0.00
2018-09-04T01:13:34.471Z,0.00
2018-09-04T01:14:34.422Z,0.00
2018-09-04T01:15:34.379Z,0.00
2018-09-04T01:16:34.311Z,0.00
2018-09-04T01:17:34.273Z,0.00
2018-09-04T01:18:34.223Z,0.00
2018-09-04T01:19:34.166Z,0.00
2018-09-04T01:20:34.128Z,0.00
2018-09-04T01:21:34.078Z,0.00
2018-09-04T01:22:34.029Z,0.00
2018-09-04T01:23:33.986Z,0.00
2018-09-04T01:24:33.937Z,0.00
2018-09-04T01:25:33.871Z,0.00
2018-09-04T01:26:33.838Z,0.00
2018-09-04T01:27:33.796Z,0.00
2018-09-04T01:28:33.739Z,0.00
2018-09-04T01:29:33.700Z,0.00
2018-09-04T01:30:33.654Z,0.00
2018-09-04T01:31:33.593Z,0.00
2018-09-04T01:32:33.540Z,0.00
2018-09-04T01:33:33.500Z,0.00
2018-09-04T01:34:33.454Z,0.00
2018-09-04T01:35:33.402Z,0.00
2018-09-04T01:36:33.363Z,0.00
2018-09-04T01:37:33.304Z,0.00
2018-09-04T01:38:33.266Z,0.00
2018-09-04T01:39:33.214Z,0.00
2018-09-04T01:40:33.158Z,0.00
2018-09-04T01:41:33.109Z,0.00
2018-09-04T01:42:33.066Z,0.00
2018-09-04T01:43:33.010Z,0.00
2018-09-04T01:44:32.969Z,0.00
2018-09-04T01:45:32.919Z,0.00
2018-09-04T01:46:32.890Z,0.00
2018-09-04T01:47:32.825Z,0.00
2018-09-04T01:48:32.774Z,0.00
2018-09-04T01:49:32.722Z,0.00
2018-09-04T01:50:32.679Z,0.00
2018-09-04T01:51:32.631Z,0.00
2018-09-04T01:52:32.579Z,0.00
2018-09-04T01:53:32.550Z,0.00
2018-09-04T01:54:32.488Z,0.00
2018-09-04T01:55:32.438Z,0.00
2018-09-04T01:56:32.390Z,0.00
2018-09-04T01:57:32.350Z,0.00
2018-09-04T01:58:32.297Z,0.00
2018-09-04T01:59:32.245Z,0.00
2018-09-04T02:00:32.212Z,0.00
2018-09-04T02:01:32.146Z,0.00
2018-09-04T02:02:32.092Z,0.00
2018-09-04T02:03:32.050Z,0.00
2018-09-04T02:04:31.988Z,0.00
2018-09-04T02:05:31.952Z,0.00
2018-09-04T02:06:31.905Z,0.00
2018-09-04T02:07:31.860Z,0.00
2018-09-04T02:08:31.812Z,0.00
2018-09-04T02:09:31.757Z,0.00
2018-09-04T02:10:31.694Z,0.00
2018-09-04T02:11:31.653Z,0.00
2018-09-04T02:12:31.629Z,0.00
2018-09-04T02:13:31.553Z,0.00
2018-09-04T02:14:31.514Z,0.00
2018-09-04T02:15:31.475Z,0.00
2018-09-04T02:16:31.423Z,0.00
2018-09-04T02:17:31.362Z,0.00
2018-09-04T02:18:31.323Z,0.00
2018-09-04T02:19:31.277Z,0.00
2018-09-04T02:20:31.226Z,0.00
2018-09-04T02:21:31.167Z,0.00
2018-09-04T02:22:31.118Z,0.00
2018-09-04T02:23:31.075Z,0.00
2018-09-04T02:24:31.022Z,0.00
2018-09-04T02:25:30.990Z,0.00
2018-09-04T02:26:30.928Z,0.00
2018-09-04T02:27:30.881Z,0.00
2018-09-04T02:28:30.815Z,0.00
2018-09-04T02:29:30.786Z,0.00
2018-09-04T02:30:30.738Z,0.00
2018-09-04T02:31:30.693Z,0.00
2018-09-04T02:32:30.638Z,0.00
2018-09-04T02:33:30.571Z,0.00
2018-09-04T02:34:30.532Z,0.00
2018-09-04T02:35:30.490Z,0.00
2018-09-04T02:36:30.431Z,0.00
2018-09-04T02:37:30.392Z,0.00
2018-09-04T02:38:30.350Z,0.00
2018-09-04T02:39:30.295Z,0.00
2018-09-04T02:40:30.245Z,0.00
2018-09-04T02:41:30.197Z,0.00
2018-09-04T02:42:30.149Z,0.00
2018-09-04T02:43:30.105Z,0.00
2018-09-04T02:44:30.051Z,0.00
2018-09-04T02:45:29.991Z,0.00
2018-09-04T02:46:29.940Z,0.00
2018-09-04T02:47:29.907Z,0.00
2018-09-04T02:48:29.850Z,0.00
2018-09-04T02:49:29.806Z,0.00
2018-09-04T02:50:29.757Z,0.00
2018-09-04T02:51:29.706Z,0.00
2018-09-04T02:52:29.653Z,0.00
2018-09-04T02:53:29.617Z,0.00
2018-09-04T02:54:29.555Z,0.00
2018-09-04T02:55:29.510Z,0.00
2018-09-04T02:56:29.463Z,0.00
2018-09-04T02:57:29.410Z,0.00
2018-09-04T02:58:29.365Z,0.00
2018-09-04T02:59:29.316Z,0.00
2018-09-04T03:00:29.276Z,0.00
2018-09-04T03:01:29.217Z,0.00
2018-09-04T03:02:29.169Z,0.00
2018-09-04T03:03:29.121Z,0.00
2018-09-04T03:04:29.071Z,0.00
2018-09-04T03:05:29.038Z,0.00
2018-09-04T03:06:28.972Z,0.00
2018-09-04T03:07:28.918Z,0.00
2018-09-04T03:08:28.875Z,0.00
2018-09-04T03:09:28.827Z,0.00
2018-09-04T03:10:28.785Z,0.00
2018-09-04T03:11:28.879Z,0.00
2018-09-04T03:12:28.671Z,0.00
2018-09-04T03:13:28.675Z,0.00
2018-09-04T03:14:28.579Z,0.00
2018-09-04T03:15:28.533Z,0.00
2018-09-04T03:16:28.478Z,0.00
2018-09-04T03:17:28.428Z,0.00
2018-09-04T03:18:28.384Z,0.00
2018-09-04T03:19:28.336Z,0.00
2018-09-04T03:20:28.286Z,0.00
2018-09-04T03:21:28.238Z,0.00
2018-09-04T03:22:28.191Z,0.00
2018-09-04T03:23:28.135Z,0.00
2018-09-04T03:24:28.088Z,0.00
2018-09-04T03:25:28.038Z,0.00
2018-09-04T03:26:27.990Z,0.00
2018-09-04T03:27:27.950Z,0.00
2018-09-04T03:28:27.896Z,0.00
2018-09-04T03:29:27.840Z,0.00
2018-09-04T03:30:27.800Z,0.00
2018-09-04T03:31:27.740Z,0.00
2018-09-04T03:32:27.702Z,0.00
2018-09-04T03:33:27.644Z,0.00
2018-09-04T03:34:27.601Z,0.00
2018-09-04T03:35:27.549Z,0.00
2018-09-04T03:36:27.499Z,0.00
2018-09-04T03:37:27.455Z,0.00
2018-09-04T03:38:27.406Z,0.00
2018-09-04T03:39:27.354Z,0.00
2018-09-04T03:40:27.317Z,0.00
2018-09-04T03:41:27.251Z,0.00
2018-09-04T03:42:27.285Z,0.00
2018-09-04T03:43:27.159Z,0.00
2018-09-04T03:44:27.233Z,0.00
2018-09-04T03:45:27.061Z,0.00
2018-09-04T03:46:27.016Z,0.00
2018-09-04T03:47:26.968Z,0.00
2018-09-04T03:48:26.918Z,0.00
2018-09-04T03:49:26.876Z,0.00
2018-09-04T03:50:26.808Z,0.00
2018-09-04T03:51:26.771Z,0.00
2018-09-04T03:52:26.908Z,0.00
2018-09-04T03:53:26.673Z,0.00
2018-09-04T03:54:26.623Z,0.00
2018-09-04T03:55:26.571Z,0.00
2018-09-04T03:56:26.521Z,0.00
2018-09-04T03:57:26.479Z,0.00
2018-09-04T03:58:26.427Z,0.00
2018-09-04T03:59:26.359Z,0.00
2018-09-04T04:00:26.321Z,0.00
2018-09-04T04:01:26.367Z,0.00
2018-09-04T04:02:26.244Z,0.00
2018-09-04T04:03:26.179Z,0.00
2018-09-04T04:04:26.120Z,0.00
2018-09-04T04:05:26.064Z,0.00
2018-09-04T04:06:26.043Z,0.00
2018-09-04T04:07:25.986Z,0.00
2018-09-04T04:08:25.926Z,0.00
2018-09-04T04:09:25.885Z,0.00
2018-09-04T04:10:25.828Z,0.00
2018-09-04T04:11:25.778Z,0.00
2018-09-04T04:12:25.734Z,0.00
2018-09-04T04:13:25.693Z,0.00
2018-09-04T04:14:25.635Z,0.00
2018-09-04T04:15:25.592Z,0.00
2018-09-04T04:16:25.521Z,0.00
2018-09-04T04:17:25.485Z,0.00
2018-09-04T04:18:25.437Z,0.00
2018-09-04T04:19:25.401Z,0.00
2018-09-04T04:20:25.352Z,0.00
2018-09-04T04:21:25.285Z,0.00
2018-09-04T04:22:25.252Z,0.00
2018-09-04T04:23:25.179Z,0.00
2018-09-04T04:24:25.141Z,0.00
2018-09-04T04:25:25.099Z,0.00
2018-09-04T04:26:25.044Z,0.00
2018-09-04T04:27:25.000Z,0.00
2018-09-04T04:28:24.942Z,0.00
2018-09-04T04:29:24.902Z,0.00
2018-09-04T04:30:24.859Z,0.00
2018-09-04T04:31:24.797Z,0.00
2018-09-04T04:32:24.753Z,0.00
2018-09-04T04:33:24.704Z,0.00
2018-09-04T04:34:24.637Z,0.00
2018-09-04T04:35:24.603Z,0.00
2018-09-04T04:36:24.566Z,0.00
2018-09-04T04:37:24.505Z,0.00
2018-09-04T04:38:24.456Z,0.00
2018-09-04T04:39:24.408Z,0.00
2018-09-04T04:40:24.364Z,0.00
2018-09-04T04:41:24.316Z,0.00
2018-09-04T04:42:24.259Z,0.00
2018-09-04T04:43:24.194Z,0.00
2018-09-04T04:44:24.162Z,0.00
2018-09-04T04:45:24.111Z,0.00
2018-09-04T04:46:24.055Z,0.00
2018-09-04T04:47:24.014Z,0.00
2018-09-04T04:48:23.982Z,0.00
2018-09-04T04:49:23.904Z,0.00
2018-09-04T04:50:23.868Z,0.00
2018-09-04T04:51:23.820Z,0.00
2018-09-04T04:52:23.769Z,0.00
2018-09-04T04:53:23.717Z,0.00
2018-09-04T04:54:23.674Z,0.00
2018-09-04T04:55:23.616Z,0.00
2018-09-04T04:56:23.569Z,0.00
2018-09-04T04:57:23.519Z,0.00
2018-09-04T04:58:23.475Z,0.00
2018-09-04T04:59:23.420Z,0.00
2018-09-04T05:00:23.493Z,0.00
2018-09-04T05:01:23.329Z,0.00
2018-09-04T05:02:23.278Z,0.00
2018-09-04T05:03:23.217Z,0.00
2018-09-04T05:04:23.161Z,0.00
2018-09-04T05:05:23.127Z,0.00
2018-09-04T05:06:23.076Z,0.00
2018-09-04T05:07:23.046Z,0.00
2018-09-04T05:08:22.974Z,0.00
2018-09-04T05:09:22.926Z,0.00
2018-09-04T05:10:22.868Z,0.00
2018-09-04T05:11:22.875Z,0.00
2018-09-04T05:12:22.789Z,0.00
2018-09-04T05:13:22.725Z,0.00
2018-09-04T05:14:22.691Z,0.00
2018-09-04T05:15:22.625Z,0.00
2018-09-04T05:16:22.581Z,0.00
2018-09-04T05:17:22.531Z,0.00
2018-09-04T05:18:22.482Z,0.00
2018-09-04T05:19:22.424Z,0.00
2018-09-04T05:20:22.383Z,0.00
2018-09-04T05:21:22.329Z,0.00
2018-09-04T05:22:22.277Z,0.00
2018-09-04T05:23:22.220Z,0.00
2018-09-04T05:24:22.179Z,0.00
2018-09-04T05:25:22.135Z,0.00
2018-09-04T05:26:22.091Z,0.00
2018-09-04T05:27:22.030Z,0.00
2018-09-04T05:28:21.987Z,0.00
2018-09-04T05:29:22.013Z,0.00
2018-09-04T05:30:21.894Z,0.00
2018-09-04T05:31:21.842Z,0.00
2018-09-04T05:32:21.787Z,0.00
2018-09-04T05:33:21.764Z,0.00
2018-09-04T05:34:21.694Z,0.00
2018-09-04T05:35:21.644Z,0.00
2018-09-04T05:36:21.603Z,0.00
2018-09-04T05:37:21.543Z,0.00
2018-09-04T05:38:21.477Z,0.00
2018-09-04T05:39:21.437Z,0.00
2018-09-04T05:40:21.395Z,0.00
2018-09-04T05:41:21.334Z,0.00
2018-09-04T05:42:21.302Z,0.00
2018-09-04T05:43:21.246Z,0.00
2018-09-04T05:44:21.201Z,0.00
2018-09-04T05:45:21.150Z,0.00
2018-09-04T05:46:21.098Z,0.00
2018-09-04T05:47:21.058Z,0.00
2018-09-04T05:48:21.009Z,0.00
2018-09-04T05:49:20.951Z,0.00
2018-09-04T05:50:20.913Z,0.00
2018-09-04T05:51:20.841Z,0.00
2018-09-04T05:52:20.805Z,0.00
2018-09-04T05:53:20.753Z,0.00
2018-09-04T05:54:20.705Z,0.00
2018-09-04T05:55:20.746Z,0.00
2018-09-04T05:56:20.604Z,0.00
2018-09-04T05:57:20.562Z,0.00
2018-09-04T05:58:20.504Z,0.00
2018-09-04T05:59:20.452Z,0.00
2018-09-04T06:00:20.410Z,0.00
2018-09-04T06:01:20.364Z,0.00
2018-09-04T06:02:20.295Z,0.00
2018-09-04T06:03:20.262Z,0.00
2018-09-04T06:04:20.206Z,0.00
2018-09-04T06:05:20.147Z,0.00
2018-09-04T06:06:20.111Z,0.00
2018-09-04T06:07:20.065Z,0.00
2018-09-04T06:08:20.008Z,0.00
2018-09-04T06:09:19.959Z,0.00
2018-09-04T06:10:19.913Z,0.00
2018-09-04T06:11:19.862Z,0.00
2018-09-04T06:12:19.799Z,0.00
2018-09-04T06:13:19.765Z,0.00
2018-09-04T06:14:19.729Z,0.00
2018-09-04T06:15:19.678Z,0.00
2018-09-04T06:16:19.617Z,0.00
2018-09-04T06:17:19.567Z,0.00
2018-09-04T06:18:19.516Z,0.00
2018-09-04T06:19:19.466Z,0.00
2018-09-04T06:20:19.407Z,0.00
2018-09-04T06:21:19.386Z,0.00
2018-09-04T06:22:19.318Z,0.00
2018-09-04T06:23:19.271Z,0.00
2018-09-04T06:24:19.221Z,0.00
2018-09-04T06:25:19.156Z,0.00
2018-09-04T06:26:19.103Z,0.00
2018-09-04T06:27:19.073Z,0.00
2018-09-04T06:28:19.024Z,0.00
2018-09-04T06:29:18.981Z,0.00
2018-09-04T06:30:18.913Z,0.00
2018-09-04T06:31:18.869Z,0.00
2018-09-04T06:32:18.828Z,0.00
2018-09-04T06:33:18.777Z,0.00
2018-09-04T06:34:18.728Z,0.00
2018-09-04T06:35:18.667Z,0.00
2018-09-04T06:36:18.631Z,0.00
2018-09-04T06:37:18.578Z,0.00
2018-09-04T06:38:18.537Z,0.00
2018-09-04T06:39:18.478Z,0.00
2018-09-04T06:40:18.426Z,0.00
2018-09-04T06:41:18.380Z,0.00
2018-09-04T06:42:18.345Z,0.00
2018-09-04T06:43:18.290Z,0.00
2018-09-04T06:44:18.225Z,0.00
2018-09-04T06:45:18.182Z,0.00
2018-09-04T06:46:18.132Z,0.00
2018-09-04T06:47:18.084Z,0.00
2018-09-04T06:48:18.041Z,0.00
2018-09-04T06:49:17.988Z,0.00
2018-09-04T06:50:17.933Z,0.00
2018-09-04T06:51:17.882Z,0.00
2018-09-04T06:52:17.841Z,0.00
2018-09-04T06:53:17.782Z,0.00
2018-09-04T06:54:17.737Z,0.00
2018-09-04T06:55:17.683Z,0.00
2018-09-04T06:56:17.640Z,0.00
2018-09-04T06:57:17.581Z,0.00
2018-09-04T06:58:17.540Z,0.00
2018-09-04T06:59:17.490Z,0.00
2018-09-04T07:00:17.438Z,0.00
2018-09-04T07:01:17.395Z,0.00
2018-09-04T07:02:17.343Z,0.00
2018-09-04T07:03:17.303Z,0.00
2018-09-04T07:04:17.239Z,0.00
2018-09-04T07:05:17.202Z,0.00
2018-09-04T07:06:17.131Z,0.00
2018-09-04T07:07:17.097Z,0.00
2018-09-04T07:08:17.057Z,0.00
2018-09-04T07:09:16.993Z,0.00
2018-09-04T07:10:16.943Z,0.00
2018-09-04T07:11:16.895Z,0.00
2018-09-04T07:12:16.837Z,0.00
2018-09-04T07:13:16.795Z,0.00
2018-09-04T07:14:16.732Z,0.00
2018-09-04T07:15:16.717Z,0.00
2018-09-04T07:16:16.649Z,0.00
2018-09-04T07:17:16.603Z,0.00
2018-09-04T07:18:16.547Z,0.00
2018-09-04T07:19:16.497Z,0.00
2018-09-04T07:20:16.457Z,0.00
2018-09-04T07:21:16.398Z,0.00
2018-09-04T07:22:16.359Z,0.00
2018-09-04T07:23:16.301Z,0.00
2018-09-04T07:24:16.323Z,0.00
2018-09-04T07:25:16.210Z,0.00
2018-09-04T07:26:16.138Z,0.00
2018-09-04T07:27:16.103Z,0.00
2018-09-04T07:28:16.080Z,0.00
2018-09-04T07:29:16.011Z,0.00
2018-09-04T07:30:15.962Z,0.00
2018-09-04T07:31:15.906Z,0.00
2018-09-04T07:32:15.861Z,0.00
2018-09-04T07:33:15.806Z,0.00
2018-09-04T07:34:15.743Z,0.00
2018-09-04T07:35:15.707Z,0.00
2018-09-04T07:36:15.676Z,0.00
2018-09-04T07:37:15.606Z,0.00
2018-09-04T07:38:15.571Z,0.00
2018-09-04T07:39:15.514Z,0.00
2018-09-04T07:40:15.444Z,0.00
2018-09-04T07:41:15.416Z,0.00
2018-09-04T07:42:15.367Z,0.00
2018-09-04T07:43:15.313Z,0.00
2018-09-04T07:44:15.258Z,0.00
2018-09-04T07:45:15.209Z,0.00
2018-09-04T07:46:15.161Z,0.00
2018-09-04T07:47:15.114Z,0.00
2018-09-04T07:48:15.067Z,0.00
2018-09-04T07:49:15.026Z,0.00
2018-09-04T07:50:14.971Z,0.00
2018-09-04T07:51:14.906Z,0.00
2018-09-04T07:52:14.868Z,0.00
2018-09-04T07:53:14.821Z,0.00
2018-09-04T07:54:14.772Z,0.00
2018-09-04T07:55:14.725Z,0.00
2018-09-04T07:56:14.672Z,0.00
2018-09-04T07:57:14.608Z,0.00
2018-09-04T07:58:14.576Z,0.00
2018-09-04T07:59:14.522Z,0.00
2018-09-04T08:00:14.484Z,0.00
2018-09-04T08:01:14.433Z,0.00
2018-09-04T08:02:14.377Z,0.00
2018-09-04T08:03:14.315Z,0.00
2018-09-04T08:04:14.288Z,0.00
2018-09-04T08:05:14.237Z,0.00
2018-09-04T08:06:14.178Z,0.00
2018-09-04T08:07:14.125Z,0.00
2018-09-04T08:08:14.083Z,0.00
2018-09-04T08:09:14.026Z,0.00
2018-09-04T08:10:14.073Z,0.00
2018-09-04T08:11:13.934Z,0.00
2018-09-04T08:12:13.888Z,0.00
2018-09-04T08:13:13.833Z,0.00
2018-09-04T08:14:13.788Z,0.00
2018-09-04T08:15:13.724Z,0.00
2018-09-04T08:16:13.762Z,0.00
2018-09-04T08:17:13.648Z,0.00
2018-09-04T08:18:13.590Z,0.00
2018-09-04T08:19:13.532Z,0.00
2018-09-04T08:20:13.500Z,0.00
2018-09-04T08:21:13.455Z,0.00
2018-09-04T08:22:13.391Z,0.00
2018-09-04T08:23:13.325Z,0.00
2018-09-04T08:24:13.287Z,0.00
2018-09-04T08:25:13.247Z,0.00
2018-09-04T08:26:13.341Z,0.00
2018-09-04T08:27:13.137Z,0.00
2018-09-04T08:28:13.101Z,0.00
2018-09-04T08:29:13.045Z,0.00
2018-09-04T08:30:12.999Z,0.00
2018-09-04T08:31:12.947Z,0.00
2018-09-04T08:32:12.883Z,0.00
2018-09-04T08:33:12.938Z,0.00
2018-09-04T08:34:12.804Z,0.00
2018-09-04T08:35:12.741Z,0.00
2018-09-04T08:36:12.693Z,0.00
2018-09-04T08:37:12.645Z,0.00
2018-09-04T08:38:12.602Z,0.00
2018-09-04T08:39:12.552Z,0.00
2018-09-04T08:40:12.505Z,0.00
2018-09-04T08:41:12.456Z,0.00
2018-09-04T08:42:12.402Z,0.00
2018-09-04T08:43:12.359Z,0.00
2018-09-04T08:44:12.302Z,0.00
2018-09-04T08:45:12.253Z,0.00
2018-09-04T08:46:12.210Z,0.00
2018-09-04T08:47:12.225Z,0.00
2018-09-04T08:48:12.114Z,0.00
2018-09-04T08:49:12.055Z,0.00
2018-09-04T08:50:12.013Z,0.00
2018-09-04T08:51:11.966Z,0.00
2018-09-04T08:52:11.922Z,0.00
2018-09-04T08:53:11.877Z,0.00
2018-09-04T08:54:11.803Z,0.00
2018-09-04T08:55:11.812Z,0.00
2018-09-04T08:56:11.709Z,0.00
2018-09-04T08:57:11.662Z,0.00
2018-09-04T08:58:11.614Z,0.00
2018-09-04T08:59:11.563Z,0.00
2018-09-04T09:00:11.527Z,0.00
2018-09-04T09:01:11.466Z,0.00
2018-09-04T09:02:11.412Z,0.00
2018-09-04T09:03:11.365Z,0.00
2018-09-04T09:04:11.327Z,0.00
2018-09-04T09:05:11.279Z,0.00
2018-09-04T09:06:11.214Z,0.00
2018-09-04T09:07:11.155Z,0.00
2018-09-04T09:08:11.117Z,0.00
2018-09-04T09:09:11.070Z,0.00
2018-09-04T09:10:11.093Z,0.00
2018-09-04T09:11:10.979Z,0.00
2018-09-04T09:12:10.919Z,0.00
2018-09-04T09:13:10.870Z,0.00
2018-09-04T09:14:10.811Z,0.00
2018-09-04T09:15:10.773Z,0.00
2018-09-04T09:16:10.721Z,0.00
2018-09-04T09:17:10.656Z,0.00
2018-09-04T09:18:10.624Z,0.00
2018-09-04T09:19:10.570Z,0.00
2018-09-04T09:20:10.512Z,0.00
2018-09-04T09:21:10.474Z,0.00
2018-09-04T09:22:10.431Z,0.00
2018-09-04T09:23:10.358Z,0.00
2018-09-04T09:24:10.326Z,0.00
2018-09-04T09:25:10.277Z,0.00
2018-09-04T09:26:10.233Z,0.00
2018-09-04T09:27:10.183Z,0.00
2018-09-04T09:28:10.133Z,0.00
2018-09-04T09:29:10.075Z,0.00
2018-09-04T09:30:10.027Z,0.00
2018-09-04T09:31:09.983Z,0.00
2018-09-04T09:32:09.944Z,5.63
2018-09-04T09:33:09.886Z,5.63
2018-09-04T09:34:09.820Z,5.63
2018-09-04T09:35:09.802Z,5.63
2018-09-04T09:36:09.739Z,5.63
2018-09-04T09:37:09.755Z,5.63
2018-09-04T09:38:09.624Z,11.25
2018-09-04T09:39:09.600Z,22.50
2018-09-04T09:40:09.538Z,22.50
2018-09-04T09:41:09.474Z,28.13
2018-09-04T09:42:09.449Z,28.13
2018-09-04T09:43:09.397Z,33.75
2018-09-04T09:44:09.345Z,39.38
2018-09-04T09:45:09.305Z,50.63
2018-09-04T09:46:09.249Z,45.00
2018-09-04T09:47:09.198Z,39.38
2018-09-04T09:48:09.130Z,39.38
2018-09-04T09:49:09.099Z,39.38
2018-09-04T09:50:09.054Z,33.75
2018-09-04T09:51:08.997Z,33.75
2018-09-04T09:52:08.946Z,45.00
2018-09-04T09:53:09.057Z,45.00
2018-09-04T09:54:08.833Z,45.00
2018-09-04T09:55:08.812Z,45.00
2018-09-04T09:56:08.769Z,50.63
2018-09-04T09:57:08.693Z,50.63
2018-09-04T09:58:08.659Z,61.88
2018-09-04T09:59:08.607Z,78.75
2018-09-04T10:00:08.568Z,78.75
2018-09-04T10:01:08.634Z,67.50
2018-09-04T10:02:08.463Z,67.50
2018-09-04T10:03:08.438Z,73.13
2018-09-04T10:04:08.438Z,73.13
2018-09-04T10:05:08.319Z,78.75
2018-09-04T10:06:08.266Z,73.13
2018-09-04T10:07:08.214Z,67.50
2018-09-04T10:08:08.300Z,56.25
2018-09-04T10:09:08.117Z,50.63
2018-09-04T10:10:08.089Z,45.00
2018-09-04T10:11:08.140Z,39.38
2018-09-04T10:12:07.966Z,33.75
2018-09-04T10:13:07.921Z,33.75
2018-09-04T10:14:07.867Z,28.13
2018-09-04T10:15:07.831Z,28.13
2018-09-04T10:16:07.800Z,28.13
2018-09-04T10:17:07.724Z,28.13
2018-09-04T10:18:07.673Z,28.13
2018-09-04T10:19:07.625Z,28.13
2018-09-04T10:20:07.578Z,28.13
2018-09-04T10:21:07.528Z,22.50
2018-09-04T10:22:07.474Z,22.50
2018-09-04T10:23:07.429Z,22.50
2018-09-04T10:24:07.385Z,28.13
2018-09-04T10:25:07.336Z,33.75
2018-09-04T10:26:07.283Z,33.75
2018-09-04T10:27:07.238Z,33.75
2018-09-04T10:28:07.191Z,39.38
2018-09-04T10:29:07.132Z,39.38
2018-09-04T10:30:07.071Z,45.00
2018-09-04T10:31:07.023Z,33.75
2018-09-04T10:32:06.986Z,33.75
2018-09-04T10:33:06.939Z,28.13
2018-09-04T10:34:06.904Z,22.50
2018-09-04T10:35:06.871Z,22.50
2018-09-04T10:36:06.831Z,22.50
2018-09-04T10:37:06.743Z,22.50
2018-09-04T10:38:06.695Z,22.50
2018-09-04T10:39:06.645Z,22.50
2018-09-04T10:40:06.603Z,22.50
2018-09-04T10:41:06.538Z,22.50
2018-09-04T10:42:06.551Z,22.50
2018-09-04T10:43:06.460Z,22.50
2018-09-04T10:44:06.403Z,22.50
2018-09-04T10:45:06.355Z,22.50
2018-09-04T10:46:06.308Z,22.50
2018-09-04T10:47:06.255Z,28.13
2018-09-04T10:48:06.201Z,28.13
2018-09-04T10:49:06.158Z,22.50
2018-09-04T10:50:06.110Z,22.50
2018-09-04T10:51:06.062Z,22.50
2018-09-04T10:52:06.010Z,22.50
2018-09-04T10:53:05.956Z,28.13
2018-09-04T10:54:05.914Z,28.13
2018-09-04T10:55:05.873Z,33.75
2018-09-04T10:56:05.817Z,33.75
2018-09-04T10:57:05.770Z,33.75
2018-09-04T10:58:05.723Z,33.75
2018-09-04T10:59:05.666Z,33.75
2018-09-04T11:00:05.603Z,33.75
2018-09-04T11:01:05.565Z,33.75
2018-09-04T11:02:05.513Z,33.75
2018-09-04T11:03:05.474Z,39.38
2018-09-04T11:04:05.420Z,39.38
2018-09-04T11:05:05.376Z,45.00
2018-09-04T11:06:05.331Z,56.25
2018-09-04T11:07:05.276Z,45.00
2018-09-04T11:08:05.235Z,39.38
2018-09-04T11:09:05.207Z,39.38
2018-09-04T11:10:05.134Z,33.75
2018-09-04T11:11:05.088Z,33.75
2018-09-04T11:12:05.041Z,39.38
2018-09-04T11:13:04.987Z,39.38
2018-09-04T11:14:04.938Z,33.75
2018-09-04T11:15:04.876Z,33.75
2018-09-04T11:16:04.843Z,39.38
2018-09-04T11:17:04.792Z,45.00
2018-09-04T11:18:04.746Z,45.00
2018-09-04T11:19:04.720Z,45.00
2018-09-04T11:20:04.642Z,50.63
2018-09-04T11:21:04.598Z,50.63
2018-09-04T11:22:04.556Z,50.63
2018-09-04T11:23:04.491Z,50.63
2018-09-04T11:24:04.454Z,50.63
2018-09-04T11:25:04.391Z,50.63
2018-09-04T11:26:04.357Z,50.63
2018-09-04T11:27:04.313Z,56.25
2018-09-04T11:28:04.266Z,56.25
2018-09-04T11:29:04.196Z,56.25
2018-09-04T11:30:04.166Z,61.88
2018-09-04T11:31:04.114Z,67.50
2018-09-04T11:32:04.052Z,67.50
2018-09-04T11:33:04.021Z,78.75
2018-09-04T11:34:03.967Z,90.00
2018-09-04T11:35:03.935Z,90.00
2018-09-04T11:36:03.873Z,84.38
2018-09-04T11:37:03.827Z,84.38
2018-09-04T11:38:03.773Z,84.38
2018-09-04T11:39:03.753Z,73.13
2018-09-04T11:40:03.674Z,67.50
2018-09-04T11:41:03.615Z,67.50
2018-09-04T11:42:03.582Z,73.13
2018-09-04T11:43:03.534Z,73.13
2018-09-04T11:44:03.488Z,73.13
2018-09-04T11:45:03.435Z,73.13
2018-09-04T11:46:03.389Z,67.50
2018-09-04T11:47:03.426Z,67.50
2018-09-04T11:48:03.301Z,67.50
2018-09-04T11:49:03.240Z,67.50
2018-09-04T11:50:03.218Z,73.13
2018-09-04T11:51:03.168Z,73.13
2018-09-04T11:52:03.106Z,73.13
2018-09-04T11:53:03.066Z,73.13
2018-09-04T11:54:03.013Z,67.50
2018-09-04T11:55:02.962Z,73.13
2018-09-04T11:56:02.909Z,73.13
2018-09-04T11:57:02.861Z,73.13
2018-09-04T11:58:02.821Z,78.75
2018-09-04T11:59:02.767Z,78.75
2018-09-04T12:00:02.721Z,84.38
2018-09-04T12:01:02.669Z,90.00
2018-09-04T12:02:02.671Z,101.25
2018-09-04T12:03:02.580Z,129.38
2018-09-04T12:04:02.539Z,146.25
2018-09-04T12:05:02.483Z,140.63
2018-09-04T12:06:02.432Z,151.88
2018-09-04T12:07:02.384Z,146.25
2018-09-04T12:08:02.351Z,140.63
2018-09-04T12:09:02.289Z,146.25
2018-09-04T12:10:02.240Z,151.88
2018-09-04T12:11:02.194Z,140.63
2018-09-04T12:12:02.142Z,140.63
2018-09-04T12:13:02.099Z,185.63
2018-09-04T12:14:02.053Z,174.38
2018-09-04T12:15:01.985Z,168.75
2018-09-04T12:16:01.969Z,157.50
2018-09-04T12:17:01.919Z,151.88
2018-09-04T12:18:01.862Z,123.75
2018-09-04T12:19:01.895Z,106.88
2018-09-04T12:20:01.770Z,106.88
2018-09-04T12:21:01.861Z,95.63
2018-09-04T12:22:01.673Z,84.38
2018-09-04T12:23:01.623Z,78.75
2018-09-04T12:24:01.577Z,61.88
2018-09-04T12:25:01.554Z,61.88
2018-09-04T12:26:01.475Z,56.25
2018-09-04T12:27:01.458Z,56.25
2018-09-04T12:28:01.393Z,61.88
2018-09-04T12:29:01.339Z,67.50
2018-09-04T12:30:01.295Z,73.13
2018-09-04T12:31:01.244Z,90.00
2018-09-04T12:32:01.195Z,112.50
2018-09-04T12:33:01.144Z,118.13
2018-09-04T12:34:01.109Z,129.38
2018-09-04T12:35:01.054Z,135.00
2018-09-04T12:36:00.998Z,140.63
2018-09-04T12:37:00.966Z,140.63
2018-09-04T12:38:00.929Z,140.63
2018-09-04T12:39:00.860Z,157.50
2018-09-04T12:40:00.817Z,163.13
2018-09-04T12:41:00.787Z,191.25
2018-09-04T12:42:00.719Z,213.75
2018-09-04T12:43:00.674Z,174.38
2018-09-04T12:44:00.626Z,180.00
2018-09-04T12:45:00.592Z,174.38
2018-09-04T12:46:00.545Z,174.38
2018-09-04T12:47:00.511Z,174.38
2018-09-04T12:48:00.471Z,146.25
2018-09-04T12:49:00.409Z,157.50
2018-09-04T12:50:00.344Z,140.63
2018-09-04T12:51:00.304Z,146.25
2018-09-04T12:52:00.258Z,168.75
2018-09-04T12:53:00.212Z,180.00
2018-09-04T12:54:00.158Z,157.50
2018-09-04T12:55:00.115Z,151.88
2018-09-04T12:56:00.068Z,151.88
2018-09-04T12:57:00.014Z,151.88
2018-09-04T12:57:59.968Z,151.88
2018-09-04T12:58:59.922Z,163.13
2018-09-04T12:59:59.892Z,157.50
2018-09-04T13:00:59.959Z,157.50
2018-09-04T13:01:59.794Z,157.50
2018-09-04T13:02:59.751Z,163.13
2018-09-04T13:03:59.689Z,146.25
2018-09-04T13:04:59.649Z,140.63
2018-09-04T13:05:59.599Z,129.38
2018-09-04T13:06:59.553Z,129.38
2018-09-04T13:07:59.514Z,135.00
2018-09-04T13:08:59.536Z,140.63